Time;durP1;ratioP1;P1;durP2;ratioP2;P2;SDS_P1;SDS_P2;PMS_P1;PMS_P2;Temp;Humidity;BMP_temperature;BMP_pressure;BME280_temperature;BME280_humidity;BME280_pressure;Samples;Min_cycle;Max_cycle;Signal;HPM_P1;HPM_P2
2023/10/06 00:00:56;;;;;;;11.00;5.70;;;;;;;14.56;54.91;100545.50;107818;1256;72662;-79
2023/10/06 00:03:16;;;;;;;10.20;5.40;;;;;;;14.57;54.98;100551.36;107691;1256;71823;-79
2023/10/06 00:05:44;;;;;;;12.50;5.80;;;;;;;14.57;54.99;100553.23;107701;1256;72457;-78
2023/10/06 00:08:15;;;;;;;11.30;5.40;;;;;;;14.58;54.98;100555.33;107878;1256;60339;-79
2023/10/06 00:10:51;;;;;;;9.80;5.90;;;;;;;14.58;55.01;100557.53;107921;1256;61672;-79
2023/10/06 00:13:23;;;;;;;10.50;5.20;;;;;;;14.60;55.04;100557.50;107942;1256;73816;-79
2023/10/06 00:15:51;;;;;;;;;;;;;;;14.59;55.05;100553.70;107770;1256;71240;-79
2023/10/06 00:18:19;;;;;;;11.80;6.00;;;;;;;14.59;54.96;100556.89;107758;1262;71714;-78
2023/10/06 00:21:14;;;;;;;12.20;5.50;;;;;;;14.59;55.01;100557.90;108022;1256;60621;-80
2023/10/06 00:23:41;;;;;;;10.70;5.30;;;;;;;14.61;54.96;100555.20;107686;1257;60323;-79
2023/10/06 00:26:18;;;;;;;7.80;4.60;;;;;;;14.62;55.13;100556.54;107681;1256;72623;-78
2023/10/06 00:28:48;;;;;;;14.60;5.80;;;;;;;14.62;55.17;100556.92;107847;1256;71288;-79
2023/10/06 00:31:16;;;;;;;10.40;5.80;;;;;;;14.62;55.08;100554.05;107776;1256;72523;-80
2023/10/06 00:33:45;;;;;;;11.10;5.40;;;;;;;14.64;55.17;100554.10;107911;1256;60233;-80
2023/10/06 00:36:14;;;;;;;11.50;5.70;;;;;;;14.66;55.18;100552.57;107703;1257;60081;-79
2023/10/06 00:38:45;;;;;;;10.50;5.50;;;;;;;14.66;55.19;100543.69;107788;1256;73916;-79
2023/10/06 00:41:16;;;;;;;10.90;5.70;;;;;;;14.67;55.18;100545.07;107861;1256;72729;-80
2023/10/06 00:43:44;;;;;;;10.10;5.60;;;;;;;14.68;55.25;100543.03;107737;1259;72481;-80
2023/10/06 00:46:13;;;;;;;11.60;5.70;;;;;;;14.69;55.23;100549.70;107603;1264;60705;-79
2023/10/06 00:48:42;;;;;;;10.60;5.80;;;;;;;14.69;55.17;100540.42;107698;1257;60272;-80
2023/10/06 00:51:19;;;;;;;11.70;5.60;;;;;;;14.71;55.13;100544.45;107884;1256;74046;-79
2023/10/06 00:53:52;;;;;;;11.30;4.90;;;;;;;14.72;55.07;100549.07;107880;1257;71899;-79
2023/10/06 00:56:23;;;;;;;11.90;5.90;;;;;;;14.73;54.97;100550.83;107686;1256;71417;-79
2023/10/06 00:58:52;;;;;;;11.10;5.50;;;;;;;14.74;54.99;100542.27;107732;1256;60348;-79
2023/10/06 01:01:21;;;;;;;12.90;6.70;;;;;;;14.75;54.87;100539.67;107684;1256;60783;-79
2023/10/06 01:04:01;;;;;;;9.40;5.30;;;;;;;14.78;54.79;100542.17;107654;1256;72828;-79
2023/10/06 01:06:38;;;;;;;13.90;5.80;;;;;;;14.80;54.93;100543.80;107712;1262;72659;-79
2023/10/06 01:12:12;;;;;;;10.20;5.20;;;;;;;14.83;54.91;100539.33;107706;1259;60399;-79
2023/10/06 01:14:40;;;;;;;9.50;4.70;;;;;;;14.83;54.86;100539.54;107434;1262;60334;-80
2023/10/06 01:17:14;;;;;;;10.60;5.50;;;;;;;14.83;54.90;100540.14;107451;1262;72627;-79
2023/10/06 01:19:49;;;;;;;10.50;5.10;;;;;;;14.83;55.03;100541.16;107489;1262;72514;-79
2023/10/06 01:22:30;;;;;;;9.60;5.60;;;;;;;14.82;54.96;100539.88;107448;1262;72680;-78
2023/10/06 01:24:58;;;;;;;10.00;5.00;;;;;;;14.81;55.03;100542.56;107409;1262;60391;-80
2023/10/06 01:27:26;;;;;;;9.20;5.40;;;;;;;14.77;55.11;100543.96;107457;1262;60534;-79
2023/10/06 01:32:44;;;;;;;8.20;5.00;;;;;;;14.70;55.27;100547.58;107357;1262;72919;-79
2023/10/06 01:35:12;;;;;;;10.40;5.70;;;;;;;14.66;55.47;100549.45;107449;1262;70650;-79
2023/10/06 01:37:44;;;;;;;9.60;4.60;;;;;;;14.62;55.79;100549.65;107466;1262;61686;-79
2023/10/06 01:40:43;;;;;;;9.40;5.40;;;;;;;14.59;56.02;100540.86;107454;1267;60949;-79
2023/10/06 01:43:10;;;;;;;9.70;4.90;;;;;;;14.58;56.07;100536.24;107435;1266;74774;-79
2023/10/06 01:45:43;;;;;;;9.20;4.80;;;;;;;14.57;56.30;100539.00;107572;1256;73754;-79
2023/10/06 01:50:41;;;;;;;11.20;4.80;;;;;;;14.51;56.53;100546.52;107927;1256;60805;-79
2023/10/06 01:53:11;;;;;;;12.20;5.50;;;;;;;14.47;56.65;100546.95;107931;1256;60005;-80
2023/10/06 01:55:38;;;;;;;9.80;4.70;;;;;;;14.46;56.94;100551.27;107878;1256;75057;-80
2023/10/06 01:58:07;;;;;;;9.80;4.90;;;;;;;14.45;56.99;100551.34;107687;1256;72523;-80
2023/10/06 02:00:36;;;;;;;8.50;4.70;;;;;;;14.42;57.16;100551.69;107958;1260;71419;-80
2023/10/06 02:03:04;;;;;;;9.40;4.90;;;;;;;14.38;57.14;100548.77;107950;1256;60090;-78
2023/10/06 02:05:32;;;;;;;8.80;4.60;;;;;;;14.34;57.26;100542.02;107985;1258;59660;-77
2023/10/06 02:08:00;;;;;;;9.00;4.30;;;;;;;14.30;57.33;100541.67;107924;1257;73840;-78
2023/10/06 02:10:28;;;;;;;9.90;5.00;;;;;;;14.26;57.49;100544.89;107715;1257;73786;-79
2023/10/06 02:12:56;;;;;;;10.20;4.80;;;;;;;14.22;57.75;100545.67;107729;1257;72707;-78
2023/10/06 02:15:28;;;;;;;12.50;5.20;;;;;;;14.18;57.86;100548.92;107795;1258;60369;-79
2023/10/06 02:17:55;;;;;;;9.80;5.00;;;;;;;14.15;57.99;100552.83;107444;1256;60513;-79
2023/10/06 02:22:52;;;;;;;9.80;5.20;;;;;;;14.14;58.26;100561.95;107848;1261;72181;-78
2023/10/06 02:25:22;;;;;;;9.60;5.00;;;;;;;14.12;58.28;100566.27;108059;1256;72078;-78
2023/10/06 02:27:50;;;;;;;9.80;5.20;;;;;;;14.11;58.39;100568.65;107893;1256;61250;-78
2023/10/06 02:30:19;;;;;;;9.80;4.70;;;;;;;14.10;58.52;100567.85;107660;1256;59601;-78
2023/10/06 02:32:47;;;;;;;11.50;4.80;;;;;;;14.12;58.53;100566.44;107670;1260;76074;-78
2023/10/06 02:35:17;;;;;;;9.60;4.60;;;;;;;14.11;58.44;100572.77;107702;1256;72462;-78
2023/10/06 02:37:49;;;;;;;11.40;4.60;;;;;;;14.10;58.49;100574.93;107730;1256;72692;-78
2023/10/06 02:40:17;;;;;;;;;;;;;;;14.11;58.68;100575.35;107692;1257;62286;-78
2023/10/06 02:42:56;;;;;;;8.30;4.00;;;;;;;14.09;58.61;100571.30;107785;1262;60460;-78
2023/10/06 02:45:37;;;;;;;9.30;4.40;;;;;;;14.08;58.89;100567.59;107741;1257;73813;-79
2023/10/06 02:48:14;;;;;;;11.10;4.70;;;;;;;14.05;59.11;100564.34;107652;1256;72732;-79
2023/10/06 02:50:44;;;;;;;8.70;4.10;;;;;;;14.02;59.21;100571.71;107702;1257;71124;-79
2023/10/06 02:53:20;;;;;;;8.40;4.60;;;;;;;14.00;59.06;100570.83;107724;1257;60562;-79
2023/10/06 02:55:55;;;;;;;10.60;4.60;;;;;;;14.00;59.20;100568.67;107696;1256;60995;-79
2023/10/06 02:58:26;;;;;;;9.70;4.40;;;;;;;14.00;59.43;100569.95;107833;1256;72561;-80
2023/10/06 03:00:55;;;;;;;9.50;4.50;;;;;;;13.98;59.37;100571.64;107655;1256;73114;-79
2023/10/06 03:03:27;;;;;;;8.90;4.60;;;;;;;13.95;59.35;100573.86;107713;1259;72708;-79
2023/10/06 03:05:57;;;;;;;7.20;4.20;;;;;;;13.95;59.49;100569.62;107713;1258;60415;-79
2023/10/06 03:08:27;;;;;;;8.90;4.20;;;;;;;13.92;59.62;100567.96;107705;1258;60274;-79
2023/10/06 03:10:55;;;;;;;9.20;4.40;;;;;;;13.89;59.79;100571.05;107709;1256;72576;-79
2023/10/06 03:13:42;;;;;;;9.50;4.30;;;;;;;13.86;59.79;100573.91;107742;1258;71494;-79
2023/10/06 03:16:12;;;;;;;8.70;4.50;;;;;;;13.83;60.02;100573.56;107703;1257;72783;-78
2023/10/06 03:18:40;;;;;;;10.70;4.30;;;;;;;13.80;60.02;100566.59;107733;1262;60794;-80
2023/10/06 03:23:43;;;;;;;7.80;3.90;;;;;;;13.76;60.23;100571.13;107674;1263;73876;-78
2023/10/06 03:26:34;;;;;;;8.60;4.00;;;;;;;13.71;60.35;100575.56;107780;1257;72483;-79
2023/10/06 03:29:03;;;;;;;10.60;4.40;;;;;;;13.70;60.48;100574.77;107660;1257;72782;-79
2023/10/06 03:31:44;;;;;;;9.40;4.30;;;;;;;13.65;60.56;100573.55;107686;1263;60348;-79
2023/10/06 03:34:20;;;;;;;7.40;4.00;;;;;;;13.61;60.61;100575.35;107766;1257;60335;-79
2023/10/06 03:36:57;;;;;;;8.70;4.20;;;;;;;13.59;60.69;100580.83;107878;1258;73830;-78
2023/10/06 03:39:30;;;;;;;10.00;4.00;;;;;;;13.55;60.83;100578.17;107918;1257;70706;-79
2023/10/06 03:42:06;;;;;;;8.50;4.10;;;;;;;13.53;60.92;100577.60;107727;1260;70798;-79
2023/10/06 03:44:34;;;;;;;9.30;4.00;;;;;;;13.50;61.00;100582.75;107730;1258;60730;-80
2023/10/06 03:47:08;;;;;;;8.20;3.90;;;;;;;13.47;60.95;100582.29;107728;1262;62273;-80
2023/10/06 03:49:40;;;;;;;8.00;3.90;;;;;;;13.45;61.26;100578.16;107673;1263;73865;-80
2023/10/06 03:52:09;;;;;;;9.10;4.00;;;;;;;13.42;61.35;100588.59;107719;1257;72286;-80
2023/10/06 03:54:37;;;;;;;7.60;3.90;;;;;;;13.40;61.35;100582.91;107768;1262;72216;-80
2023/10/06 03:57:06;;;;;;;8.20;4.20;;;;;;;13.38;61.55;100588.88;107713;1262;61935;-79
2023/10/06 03:59:35;;;;;;;8.10;3.70;;;;;;;13.34;61.69;100589.38;107784;1257;60429;-80
2023/10/06 04:02:03;;;;;;;11.50;4.40;;;;;;;13.30;61.79;100592.45;107765;1257;73847;-78
2023/10/06 04:04:31;;;;;;;7.60;4.00;;;;;;;13.29;61.94;100592.06;107768;1262;73754;-79
2023/10/06 04:06:58;;;;;;;7.20;3.80;;;;;;;13.28;61.87;100592.17;107562;1258;289545;-81
2023/10/06 04:09:30;;;;;;;9.30;3.90;;;;;;;13.25;62.04;100594.65;107869;1257;61794;-79
2023/10/06 04:12:01;;;;;;;6.40;3.30;;;;;;;13.22;62.12;100590.39;108007;1258;60402;-79
2023/10/06 04:14:31;;;;;;;8.30;3.70;;;;;;;13.21;62.29;100589.77;107801;1257;73857;-79
2023/10/06 04:17:01;;;;;;;8.60;4.10;;;;;;;13.19;62.49;100595.02;107736;1257;72747;-80
2023/10/06 04:19:29;;;;;;;8.80;3.70;;;;;;;13.16;62.55;100596.37;107947;1256;71361;-80
2023/10/06 04:21:57;;;;;;;9.60;3.90;;;;;;;13.15;62.60;100592.94;107849;1258;61665;-80
2023/10/06 04:24:24;;;;;;;9.10;3.50;;;;;;;13.17;62.69;100594.33;107777;1258;60306;-80
2023/10/06 04:26:52;;;;;;;7.30;3.70;;;;;;;13.18;62.65;100598.57;107783;1258;73864;-80
2023/10/06 04:29:19;;;;;;;7.70;3.90;;;;;;;13.18;62.63;100597.71;107726;1257;72713;-79
2023/10/06 04:31:49;;;;;;;7.80;3.70;;;;;;;13.20;62.54;100597.27;107784;1257;71072;-79
2023/10/06 04:34:16;;;;;;;8.80;3.80;;;;;;;13.23;62.57;100601.83;107728;1257;60456;-79
2023/10/06 04:36:44;;;;;;;7.80;3.40;;;;;;;13.25;62.50;100606.56;107751;1260;60466;-79
2023/10/06 04:39:16;;;;;;;8.10;3.90;;;;;;;13.26;62.65;100609.96;107760;1257;72711;-80
2023/10/06 04:41:44;;;;;;;7.80;3.30;;;;;;;13.27;62.41;100609.73;107775;1262;71991;-80
2023/10/06 04:44:12;;;;;;;9.30;4.20;;;;;;;13.26;62.29;100614.73;107787;1256;71561;-79
2023/10/06 04:46:40;;;;;;;7.10;3.40;;;;;;;13.26;62.31;100611.81;107743;1257;62244;-79
2023/10/06 04:49:08;;;;;;;7.60;3.70;;;;;;;13.26;62.33;100612.47;107782;1257;60329;-79
2023/10/06 04:51:36;;;;;;;10.20;4.40;;;;;;;13.24;62.42;100613.31;107844;1261;73840;-81
2023/10/06 04:54:07;;;;;;;8.60;3.70;;;;;;;13.23;62.47;100616.37;107679;1257;71457;-79
2023/10/06 04:56:36;;;;;;;7.40;3.80;;;;;;;13.21;62.44;100619.27;107912;1258;71696;-78
2023/10/06 04:59:05;;;;;;;7.80;3.90;;;;;;;13.17;62.33;100626.41;107793;1257;61020;-79
2023/10/06 05:01:34;;;;;;;9.30;3.30;;;;;;;13.15;62.63;100629.89;107873;1257;59106;-80
2023/10/06 05:04:06;;;;;;;7.40;3.90;;;;;;;13.13;62.73;100631.73;107792;1257;72925;-79
2023/10/06 05:06:35;;;;;;;8.30;3.70;;;;;;;13.12;62.68;100629.48;107797;1257;72777;-79
2023/10/06 05:09:03;;;;;;;8.90;3.60;;;;;;;13.14;62.99;100635.16;107925;1260;71341;-81
2023/10/06 05:11:32;;;;;;;9.70;3.60;;;;;;;13.18;63.29;100631.77;107881;1257;60437;-81
2023/10/06 05:14:01;;;;;;;8.00;4.10;;;;;;;13.25;63.28;100636.65;107747;1262;60194;-81
2023/10/06 05:16:29;;;;;;;6.90;3.80;;;;;;;13.32;63.04;100642.92;107946;1257;75761;-80
2023/10/06 05:18:57;;;;;;;7.70;3.60;;;;;;;13.35;62.72;100645.70;107743;1257;72700;-80
2023/10/06 05:21:24;;;;;;;9.80;3.70;;;;;;;13.36;62.53;100649.83;107915;1257;72726;-79
2023/10/06 05:23:53;;;;;;;6.60;3.50;;;;;;;13.35;62.42;100655.09;107787;1259;61854;-79
2023/10/06 05:26:20;;;;;;;7.70;3.40;;;;;;;13.35;62.26;100653.36;107666;1257;61944;-79
2023/10/06 05:28:50;;;;;;;7.30;3.40;;;;;;;13.34;62.52;100654.02;107698;1257;72565;-79
2023/10/06 05:31:18;;;;;;;8.40;3.60;;;;;;;13.31;62.59;100654.35;107727;1257;71443;-79
2023/10/06 05:33:46;;;;;;;5.80;3.20;;;;;;;13.26;62.93;100656.94;107738;1257;71425;-79
2023/10/06 05:36:15;;;;;;;8.00;3.40;;;;;;;13.24;62.83;100658.86;107764;1257;60433;-81
2023/10/06 05:38:47;;;;;;;9.90;3.30;;;;;;;13.23;62.86;100661.21;107774;1257;60011;-79
2023/10/06 05:41:15;;;;;;;7.60;3.40;;;;;;;13.25;62.79;100669.11;107868;1257;73838;-79
2023/10/06 05:43:43;;;;;;;6.70;3.40;;;;;;;13.30;62.67;100665.73;107863;1257;72938;-80
2023/10/06 05:46:11;;;;;;;8.30;3.00;;;;;;;13.37;62.47;100661.63;107806;1258;71675;-79
2023/10/06 05:48:41;;;;;;;7.20;3.00;;;;;;;13.44;62.18;100661.99;107917;1257;61721;-81
2023/10/06 05:51:09;;;;;;;5.90;3.00;;;;;;;13.52;62.06;100663.96;107795;1257;60381;-80
2023/10/06 05:53:40;;;;;;;7.90;3.60;;;;;;;13.60;61.78;100670.03;107897;1257;72702;-81
2023/10/06 05:56:08;;;;;;;5.40;2.80;;;;;;;13.66;61.58;100677.52;107746;1257;70673;-81
2023/10/06 05:58:37;;;;;;;6.30;3.10;;;;;;;13.73;61.26;100680.29;107864;1257;70579;-80
2023/10/06 06:01:18;;;;;;;6.20;3.00;;;;;;;13.77;60.83;100677.23;107789;1257;60364;-81
2023/10/06 06:03:46;;;;;;;4.90;2.30;;;;;;;13.83;60.83;100677.52;107866;1258;60464;-79
2023/10/06 06:06:15;;;;;;;12.90;4.80;;;;;;;13.90;60.71;100683.55;107738;1257;72634;-79
2023/10/06 06:08:47;;;;;;;7.30;3.00;;;;;;;13.97;60.64;100685.02;107683;1263;71920;-79
2023/10/06 06:11:16;;;;;;;7.80;3.40;;;;;;;14.04;60.14;100692.08;107751;1257;71281;-79
2023/10/06 06:13:44;;;;;;;4.90;2.40;;;;;;;14.06;59.56;100692.88;107743;1257;60491;-79
2023/10/06 06:16:25;;;;;;;6.80;2.70;;;;;;;14.10;59.22;100696.18;107779;1257;60421;-78
2023/10/06 06:18:53;;;;;;;9.90;2.70;;;;;;;14.17;59.03;100695.67;107883;1258;73896;-80
2023/10/06 06:21:24;;;;;;;6.00;2.30;;;;;;;14.25;58.65;100696.95;107779;1257;72714;-79
2023/10/06 06:23:57;;;;;;;5.80;2.30;;;;;;;14.37;57.96;100700.59;107910;1258;71295;-79
2023/10/06 06:26:24;;;;;;;;;;;;;;;14.45;57.00;100706.83;107765;1257;59318;-79
2023/10/06 06:28:53;;;;;;;8.70;2.20;;;;;;;14.53;56.51;100705.41;107721;1257;60926;-78
2023/10/06 06:31:21;;;;;;;6.20;1.90;;;;;;;14.58;55.91;100705.10;107881;1257;73821;-78
2023/10/06 06:33:55;;;;;;;6.40;1.70;;;;;;;14.64;55.48;100709.68;107848;1257;71864;-81
2023/10/06 06:36:26;;;;;;;6.80;2.10;;;;;;;14.70;55.08;100710.98;107868;1257;72502;-80
2023/10/06 06:38:54;;;;;;;5.50;2.00;;;;;;;14.72;55.05;100710.10;107869;1257;60323;-79
2023/10/06 06:41:21;;;;;;;5.00;2.20;;;;;;;14.76;54.66;100714.92;107852;1257;60480;-79
2023/10/06 06:43:49;;;;;;;5.20;1.80;;;;;;;14.86;54.26;100717.73;107825;1258;74152;-79
2023/10/06 06:46:17;;;;;;;5.00;2.00;;;;;;;14.95;53.80;100719.98;107899;1257;70453;-78
2023/10/06 06:48:46;;;;;;;7.10;2.60;;;;;;;14.97;53.70;100717.70;107892;1260;71375;-78
2023/10/06 06:51:14;;;;;;;5.10;1.80;;;;;;;14.94;53.75;100720.48;107894;1257;60312;-78
2023/10/06 06:53:42;;;;;;;7.60;2.10;;;;;;;14.88;53.38;100722.52;107892;1257;60436;-79
2023/10/06 06:56:10;;;;;;;3.80;1.70;;;;;;;14.81;52.97;100724.29;107773;1256;73922;-79
2023/10/06 06:58:39;;;;;;;6.20;1.70;;;;;;;14.80;52.99;100726.51;107880;1257;72834;-79
2023/10/06 07:14:29;;;;;;;4.80;1.40;;;;;;;14.88;52.08;100737.00;105647;1283;613403;-70
2023/10/06 07:16:57;;;;;;;3.90;1.30;;;;;;;15.19;50.64;100743.17;107581;1266;175394;-70
2023/10/06 07:19:25;;;;;;;5.50;1.80;;;;;;;15.12;50.97;100745.08;107365;1267;60971;-70
2023/10/06 07:21:53;;;;;;;3.50;1.30;;;;;;;14.99;50.48;100746.30;107404;1267;71976;-71
2023/10/06 07:24:20;;;;;;;4.10;1.40;;;;;;;14.94;49.46;100748.77;107331;1267;72800;-69
2023/10/06 07:26:50;;;;;;;5.10;1.20;;;;;;;14.96;49.07;100754.50;107269;1267;72501;-70
2023/10/06 07:29:17;;;;;;;4.40;1.40;;;;;;;15.02;49.11;100755.27;107334;1267;60073;-69
2023/10/06 07:31:48;;;;;;;5.90;1.50;;;;;;;15.08;48.97;100758.27;107692;1259;60083;-70
2023/10/06 07:34:16;;;;;;;5.10;1.60;;;;;;;15.18;48.81;100745.07;107729;1261;71995;-71
2023/10/06 07:36:44;;;;;;;5.60;1.50;;;;;;;15.25;48.90;100755.51;107797;1260;72891;-70
2023/10/06 07:39:20;;;;;;;6.20;1.40;;;;;;;15.26;48.90;100749.94;107852;1260;72191;-69
2023/10/06 07:41:48;;;;;;;6.00;1.50;;;;;;;15.24;49.41;100757.88;107847;1258;59617;-69
2023/10/06 07:44:16;;;;;;;5.40;1.40;;;;;;;15.23;49.04;100755.95;107786;1257;59474;-69
2023/10/06 07:46:46;;;;;;;3.90;1.50;;;;;;;15.21;48.64;100764.79;107763;1263;73066;-70
2023/10/06 07:49:14;;;;;;;5.90;1.60;;;;;;;15.16;47.85;100772.05;107967;1254;72171;-70
2023/10/06 07:51:45;;;;;;;5.50;1.30;;;;;;;15.14;47.89;100769.10;108111;1254;71552;-69
2023/10/06 07:54:12;;;;;;;6.70;1.40;;;;;;;15.19;48.11;100768.80;108105;1254;60618;-69
2023/10/06 07:56:42;;;;;;;4.20;1.30;;;;;;;15.25;47.97;100770.73;108013;1254;60046;-69
2023/10/06 07:59:10;;;;;;;6.10;1.40;;;;;;;15.31;48.27;100774.73;108024;1254;72858;-69
2023/10/06 08:01:38;;;;;;;5.30;1.90;;;;;;;15.42;48.49;100778.00;108190;1254;72928;-69
2023/10/06 08:04:07;;;;;;;3.70;1.50;;;;;;;15.47;48.03;100784.09;107958;1256;73083;-68
2023/10/06 08:06:35;;;;;;;4.70;1.40;;;;;;;15.45;46.83;100784.91;108009;1260;59703;-69
2023/10/06 08:09:05;;;;;;;4.10;1.10;;;;;;;15.32;46.72;100792.84;107908;1257;59485;-69
2023/10/06 08:11:33;;;;;;;5.30;1.40;;;;;;;15.22;46.96;100797.83;108044;1256;72160;-68
2023/10/06 08:14:03;;;;;;;4.50;1.40;;;;;;;15.21;46.37;100800.09;107914;1257;74564;-72
2023/10/06 08:16:30;;;;;;;3.70;1.30;;;;;;;15.21;46.28;100800.80;108065;1256;72545;-71
2023/10/06 08:18:58;;;;;;;4.50;0.90;;;;;;;15.25;46.64;100807.12;107978;1257;59696;-70
2023/10/06 08:21:25;;;;;;;2.80;1.10;;;;;;;15.34;46.70;100793.59;107927;1256;60330;-70
2023/10/06 08:23:53;;;;;;;4.20;1.10;;;;;;;15.42;46.65;100789.41;107864;1257;72158;-69
2023/10/06 08:26:21;;;;;;;4.40;1.10;;;;;;;15.55;46.55;100795.70;107923;1256;75154;-71
2023/10/06 08:28:50;;;;;;;5.40;1.40;;;;;;;15.64;46.38;100791.58;107843;1258;72908;-71
2023/10/06 08:31:18;;;;;;;4.60;1.40;;;;;;;15.76;46.44;100790.67;107851;1256;59647;-71
2023/10/06 08:33:45;;;;;;;2.90;1.30;;;;;;;15.91;46.64;100790.14;107888;1256;60340;-72
2023/10/06 08:36:13;;;;;;;4.20;1.30;;;;;;;16.04;45.65;100792.84;107942;1256;71746;-71
2023/10/06 08:38:44;;;;;;;3.70;1.40;;;;;;;16.02;44.73;100793.71;107845;1256;71604;-70
2023/10/06 08:41:12;;;;;;;5.80;1.60;;;;;;;15.93;45.13;100791.73;107889;1256;72113;-72
2023/10/06 08:43:39;;;;;;;5.60;1.40;;;;;;;15.86;45.79;100785.60;107838;1260;59923;-69
2023/10/06 10:12:47;;;;;;;5.80;1.20;;;;;;;16.57;40.14;100823.87;105587;1284;613749;-70
2023/10/06 10:15:44;;;;;;;3.70;0.90;;;;;;;17.05;39.07;100821.38;107121;1267;172174;-68
2023/10/06 10:18:19;;;;;;;4.10;1.40;;;;;;;17.11;39.01;100821.98;107223;1268;59508;-71
2023/10/06 11:15:13;;;;;;;5.90;1.00;;;;;;;16.61;37.88;100818.08;105612;1283;614335;-71
2023/10/06 11:17:43;;;;;;;3.50;1.10;;;;;;;17.12;37.22;100799.09;107164;1270;155521;-71
2023/10/06 11:20:22;;;;;;;7.20;1.10;;;;;;;17.32;35.55;100816.58;107215;1267;60933;-70
2023/10/06 11:22:59;;;;;;;5.60;1.30;;;;;;;17.36;35.50;100810.40;107339;1269;73161;-74
2023/10/06 11:25:27;;;;;;;6.30;1.20;;;;;;;17.39;34.23;100816.29;107389;1265;71408;-72
2023/10/06 11:28:02;;;;;;;5.50;1.60;;;;;;;17.39;34.21;100825.09;107330;1267;72730;-72
2023/10/06 11:30:32;;;;;;;3.20;1.20;;;;;;;17.38;34.08;100826.19;107473;1266;60247;-74
2023/10/06 11:33:04;;;;;;;4.10;1.30;;;;;;;17.35;34.16;100824.88;107321;1269;59380;-72
2023/10/06 13:30:58;;;;;;;6.30;1.40;;;;;;;17.30;34.82;100826.73;105881;1280;612623;-70
2023/10/06 13:33:28;;;;;;;4.60;1.30;;;;;;;17.67;33.87;100816.60;107255;1263;147325;-69
2023/10/06 13:35:56;;;;;;;5.20;1.70;;;;;;;17.64;34.12;100817.37;107418;1266;60120;-70
2023/10/06 13:38:25;;;;;;;4.70;1.40;;;;;;;17.61;33.74;100822.98;107479;1264;71973;-69
2023/10/06 13:40:52;;;;;;;3.80;1.50;;;;;;;17.57;33.62;100822.68;107727;1263;72988;-69
2023/10/06 13:43:20;;;;;;;6.70;1.20;;;;;;;17.54;34.05;100822.83;107514;1263;72408;-70
2023/10/06 13:45:48;;;;;;;5.00;1.40;;;;;;;17.53;34.14;100818.14;107416;1263;60940;-69
2023/10/06 13:48:22;;;;;;;3.60;1.20;;;;;;;17.53;34.15;100832.84;107481;1263;59579;-70
2023/10/06 13:50:52;;;;;;;5.30;1.20;;;;;;;17.50;33.68;100828.80;107436;1265;72340;-70
2023/10/06 13:53:19;;;;;;;6.60;1.30;;;;;;;17.44;33.76;100820.69;107451;1263;72522;-69
2023/10/06 13:55:46;;;;;;;4.50;1.30;;;;;;;17.40;33.94;100818.05;107428;1263;72553;-69
2023/10/06 13:58:13;;;;;;;6.80;1.70;;;;;;;17.38;33.87;100819.86;107410;1264;60421;-68
2023/10/06 14:00:40;;;;;;;4.60;1.50;;;;;;;17.36;33.88;100829.14;107458;1263;60247;-69
2023/10/06 14:03:07;;;;;;;4.60;1.60;;;;;;;17.33;33.89;100831.79;107507;1266;72717;-71
2023/10/06 14:05:38;;;;;;;6.80;1.60;;;;;;;17.30;34.39;100827.47;107442;1267;72525;-69
2023/10/06 14:08:05;;;;;;;6.00;1.30;;;;;;;17.28;34.63;100827.73;107461;1267;72601;-69
2023/10/06 14:10:35;;;;;;;6.00;1.80;;;;;;;17.25;34.80;100836.23;107565;1264;60471;-69
2023/10/06 14:15:49;;;;;;;4.40;1.80;;;;;;;17.17;33.95;100840.30;107559;1263;73027;-69
2023/10/06 14:18:23;;;;;;;6.30;1.80;;;;;;;17.14;34.38;100842.17;107519;1266;72686;-69
2023/10/06 14:20:52;;;;;;;4.70;1.70;;;;;;;17.11;34.08;100844.02;107477;1265;72726;-70
2023/10/06 14:23:29;;;;;;;9.00;1.70;;;;;;;17.07;33.46;100844.67;107438;1266;59765;-69
2023/10/06 14:25:59;;;;;;;6.80;2.10;;;;;;;17.03;34.08;100844.45;107492;1266;60328;-70
2023/10/06 14:28:27;;;;;;;4.90;1.80;;;;;;;17.01;34.06;100843.85;107434;1266;74101;-70
2023/10/06 14:31:07;;;;;;;5.20;1.60;;;;;;;16.98;34.07;100847.02;107451;1266;73291;-68
2023/10/06 14:33:44;;;;;;;5.20;1.50;;;;;;;16.97;34.39;100858.52;107395;1266;72748;-68
2023/10/06 14:46:49;;;;;;;3.50;1.30;;;;;;;17.57;33.65;100852.98;107434;1266;72472;-69
2023/10/06 14:49:25;;;;;;;5.10;1.40;;;;;;;17.72;33.50;100855.77;107457;1266;60062;-69
2023/10/06 14:51:56;;;;;;;5.80;1.60;;;;;;;17.89;33.42;100858.02;107431;1266;60015;-69
2023/10/06 14:54:32;;;;;;;5.10;1.30;;;;;;;18.19;33.26;100857.45;107331;1266;73365;-69
2023/10/06 14:57:01;;;;;;;4.70;1.50;;;;;;;18.38;32.78;100861.27;107469;1266;72723;-69
2023/10/06 14:59:31;;;;;;;4.10;1.40;;;;;;;18.54;32.77;100859.93;107383;1266;71465;-69
2023/10/06 15:01:58;;;;;;;3.80;1.20;;;;;;;18.63;32.59;100862.16;107421;1266;60593;-69
2023/10/06 15:04:25;;;;;;;4.20;1.30;;;;;;;18.64;32.12;100867.83;107474;1265;59597;-69
2023/10/06 15:06:52;;;;;;;4.60;1.30;;;;;;;18.59;32.16;100869.50;107466;1270;72763;-69
2023/10/06 15:09:20;;;;;;;5.10;1.30;;;;;;;18.45;32.55;100872.71;107410;1265;71688;-69
2023/10/06 15:11:47;;;;;;;6.00;1.50;;;;;;;18.22;32.98;100880.11;107418;1266;73569;-70
2023/10/06 15:14:14;;;;;;;3.80;1.50;;;;;;;17.92;33.85;100888.23;107444;1266;60699;-71
2023/10/06 15:16:42;;;;;;;5.20;1.40;;;;;;;17.66;34.37;100893.34;107431;1266;60280;-69
2023/10/06 15:19:11;;;;;;;6.60;1.60;;;;;;;17.41;34.65;100891.48;107582;1266;72086;-68
2023/10/06 15:21:42;;;;;;;4.30;1.50;;;;;;;17.19;34.81;100893.02;107387;1265;72404;-69
2023/10/06 15:24:14;;;;;;;4.70;1.50;;;;;;;17.02;35.29;100895.14;107282;1266;72553;-69
2023/10/06 15:26:44;;;;;;;6.60;1.60;;;;;;;16.86;36.07;100904.23;107400;1266;59744;-69
2023/10/06 15:29:12;;;;;;;5.60;1.40;;;;;;;16.71;36.74;100909.95;107459;1266;60499;-69
2023/10/06 15:31:40;;;;;;;4.20;1.50;;;;;;;16.56;37.11;100911.26;107448;1266;72965;-70
2023/10/06 15:34:09;;;;;;;6.30;1.40;;;;;;;16.41;37.54;100915.27;107409;1266;72934;-70
2023/10/06 15:36:36;;;;;;;6.00;1.60;;;;;;;16.23;37.50;100915.23;107588;1266;72510;-69
2023/10/06 15:39:25;;;;;;;4.70;1.80;;;;;;;16.11;37.79;100917.31;107406;1266;59588;-70
2023/10/06 15:41:50;;;;;;;4.20;2.00;;;;;;;16.01;38.14;100927.36;107432;1266;59384;-69
2023/10/06 15:44:18;;;;;;;5.20;2.10;;;;;;;15.96;38.62;100929.89;107442;1266;71722;-70
2023/10/06 15:46:45;;;;;;;4.40;2.20;;;;;;;15.88;38.79;100933.04;107480;1266;72675;-70
2023/10/06 15:49:12;;;;;;;8.00;1.90;;;;;;;15.84;39.07;100933.61;107423;1266;72427;-71
2023/10/06 15:51:43;;;;;;;5.10;2.40;;;;;;;15.77;39.19;100931.73;107464;1266;59738;-69
2023/10/06 15:54:10;;;;;;;6.10;1.80;;;;;;;15.70;39.42;100936.11;107436;1266;60373;-69
2023/10/06 15:56:40;;;;;;;4.80;1.90;;;;;;;15.61;39.50;100944.77;107377;1266;73006;-68
2023/10/06 15:59:14;;;;;;;5.30;2.00;;;;;;;15.53;39.94;100945.69;107332;1266;71324;-70
2023/10/06 16:01:42;;;;;;;6.30;2.40;;;;;;;15.45;40.06;100948.16;107420;1266;71236;-70
2023/10/06 16:04:10;;;;;;;7.10;2.10;;;;;;;15.38;40.28;100950.41;108213;1253;59513;-71
2023/10/06 16:06:37;;;;;;;7.00;2.30;;;;;;;15.32;40.46;100950.56;108432;1253;60279;-70
2023/10/06 16:09:08;;;;;;;9.40;2.60;;;;;;;15.28;40.60;100954.36;108356;1253;73117;-70
2023/10/06 16:11:35;;;;;;;6.70;2.40;;;;;;;15.21;40.75;100953.20;108162;1253;72070;-70
2023/10/06 16:14:04;;;;;;;5.80;2.40;;;;;;;15.15;41.07;100961.16;108089;1253;71647;-69
2023/10/06 16:16:34;;;;;;;8.30;2.50;;;;;;;15.07;41.14;100962.27;109148;1253;60429;-69
2023/10/06 16:19:03;;;;;;;6.00;2.50;;;;;;;15.01;41.33;100966.92;108277;1253;59471;-70
2023/10/06 16:21:31;;;;;;;8.00;2.50;;;;;;;14.97;41.37;100970.76;108182;1253;73164;-70
2023/10/06 16:23:58;;;;;;;5.70;2.30;;;;;;;14.95;41.43;100976.05;108271;1253;71596;-71
2023/10/06 16:26:26;;;;;;;8.50;2.40;;;;;;;14.90;41.57;100977.95;108254;1253;71469;-69